sensor_id;sensor_type;location;lat;lon;timestamp;P1;durP1;ratioP1;P2;durP2;ratioP2
23722;SDS011;12042;52.136;5.584;2023-03-05T00:02:17;6.82;;;2.63;;
23722;SDS011;12042;52.136;5.584;2023-03-05T00:04:43;10.77;;;3.40;;
23722;SDS011;12042;52.136;5.584;2023-03-05T00:07:08;10.32;;;3.60;;
23722;SDS011;12042;52.136;5.584;2023-03-05T00:09:36;13.00;;;3.17;;
23722;SDS011;12042;52.136;5.584;2023-03-05T00:12:02;7.68;;;2.80;;
23722;SDS011;12042;52.136;5.584;2023-03-05T00:14:28;8.50;;;2.88;;
23722;SDS011;12042;52.136;5.584;2023-03-05T00:16:53;14.73;;;4.00;;
23722;SDS011;12042;52.136;5.584;2023-03-05T00:19:19;13.75;;;4.15;;
23722;SDS011;12042;52.136;5.584;2023-03-05T00:21:45;10.85;;;3.83;;
23722;SDS011;12042;52.136;5.584;2023-03-05T00:24:12;14.90;;;4.15;;
23722;SDS011;12042;52.136;5.584;2023-03-05T00:26:40;15.32;;;4.47;;
23722;SDS011;12042;52.136;5.584;2023-03-05T00:29:06;16.52;;;4.03;;
23722;SDS011;12042;52.136;5.584;2023-03-05T00:31:33;12.18;;;4.00;;
23722;SDS011;12042;52.136;5.584;2023-03-05T00:34:01;18.67;;;4.68;;
23722;SDS011;12042;52.136;5.584;2023-03-05T00:36:40;18.38;;;4.72;;
23722;SDS011;12042;52.136;5.584;2023-03-05T00:39:08;17.92;;;4.75;;
23722;SDS011;12042;52.136;5.584;2023-03-05T00:41:34;11.32;;;3.80;;
23722;SDS011;12042;52.136;5.584;2023-03-05T00:43:59;11.35;;;3.50;;
23722;SDS011;12042;52.136;5.584;2023-03-05T00:46:25;11.48;;;3.22;;
23722;SDS011;12042;52.136;5.584;2023-03-05T00:48:51;14.02;;;3.60;;
23722;SDS011;12042;52.136;5.584;2023-03-05T00:51:17;15.73;;;4.30;;
23722;SDS011;12042;52.136;5.584;2023-03-05T00:53:44;10.35;;;3.60;;
23722;SDS011;12042;52.136;5.584;2023-03-05T00:56:09;8.93;;;3.50;;
23722;SDS011;12042;52.136;5.584;2023-03-05T00:58:35;8.07;;;3.13;;
23722;SDS011;12042;52.136;5.584;2023-03-05T01:01:01;13.60;;;3.05;;
23722;SDS011;12042;52.136;5.584;2023-03-05T01:03:27;6.47;;;2.90;;
23722;SDS011;12042;52.136;5.584;2023-03-05T01:05:54;9.52;;;2.85;;
23722;SDS011;12042;52.136;5.584;2023-03-05T01:08:20;9.73;;;2.97;;
23722;SDS011;12042;52.136;5.584;2023-03-05T01:10:46;9.68;;;2.65;;
23722;SDS011;12042;52.136;5.584;2023-03-05T01:13:12;14.07;;;3.10;;
23722;SDS011;12042;52.136;5.584;2023-03-05T01:15:37;10.48;;;2.75;;
23722;SDS011;12042;52.136;5.584;2023-03-05T01:18:03;9.35;;;3.05;;
23722;SDS011;12042;52.136;5.584;2023-03-05T01:20:29;10.55;;;2.80;;
23722;SDS011;12042;52.136;5.584;2023-03-05T01:22:55;11.55;;;3.30;;
23722;SDS011;12042;52.136;5.584;2023-03-05T01:25:23;8.55;;;3.08;;
23722;SDS011;12042;52.136;5.584;2023-03-05T01:27:49;6.47;;;3.25;;
23722;SDS011;12042;52.136;5.584;2023-03-05T01:30:14;11.20;;;3.92;;
23722;SDS011;12042;52.136;5.584;2023-03-05T01:32:41;9.65;;;4.13;;
23722;SDS011;12042;52.136;5.584;2023-03-05T01:35:07;10.93;;;3.28;;
23722;SDS011;12042;52.136;5.584;2023-03-05T01:37:35;7.40;;;3.13;;
23722;SDS011;12042;52.136;5.584;2023-03-05T01:40:00;8.80;;;2.58;;
23722;SDS011;12042;52.136;5.584;2023-03-05T01:42:26;6.05;;;2.67;;
23722;SDS011;12042;52.136;5.584;2023-03-05T01:45:08;8.77;;;2.70;;
23722;SDS011;12042;52.136;5.584;2023-03-05T01:47:37;5.75;;;2.70;;
23722;SDS011;12042;52.136;5.584;2023-03-05T01:50:04;8.45;;;2.55;;
23722;SDS011;12042;52.136;5.584;2023-03-05T01:52:31;7.85;;;3.00;;
23722;SDS011;12042;52.136;5.584;2023-03-05T01:55:00;9.82;;;2.80;;
23722;SDS011;12042;52.136;5.584;2023-03-05T01:57:35;9.60;;;3.50;;
23722;SDS011;12042;52.136;5.584;2023-03-05T02:00:12;11.18;;;3.10;;
23722;SDS011;12042;52.136;5.584;2023-03-05T02:02:45;8.82;;;3.40;;
23722;SDS011;12042;52.136;5.584;2023-03-05T02:05:15;12.43;;;3.83;;
23722;SDS011;12042;52.136;5.584;2023-03-05T02:07:50;11.85;;;3.72;;
23722;SDS011;12042;52.136;5.584;2023-03-05T02:10:19;10.45;;;3.65;;
23722;SDS011;12042;52.136;5.584;2023-03-05T02:12:47;14.07;;;4.22;;
23722;SDS011;12042;52.136;5.584;2023-03-05T02:15:14;10.98;;;4.32;;
23722;SDS011;12042;52.136;5.584;2023-03-05T02:17:40;12.15;;;4.30;;
23722;SDS011;12042;52.136;5.584;2023-03-05T02:20:14;13.30;;;4.35;;
23722;SDS011;12042;52.136;5.584;2023-03-05T02:22:42;14.45;;;3.85;;
23722;SDS011;12042;52.136;5.584;2023-03-05T02:25:18;13.45;;;3.80;;
23722;SDS011;12042;52.136;5.584;2023-03-05T02:27:54;14.32;;;3.72;;
23722;SDS011;12042;52.136;5.584;2023-03-05T02:30:21;15.48;;;4.43;;
23722;SDS011;12042;52.136;5.584;2023-03-05T02:32:47;12.15;;;3.60;;
23722;SDS011;12042;52.136;5.584;2023-03-05T02:35:12;13.23;;;3.85;;
23722;SDS011;12042;52.136;5.584;2023-03-05T02:37:38;9.90;;;3.50;;
23722;SDS011;12042;52.136;5.584;2023-03-05T02:40:04;7.95;;;3.72;;
23722;SDS011;12042;52.136;5.584;2023-03-05T02:42:30;14.60;;;4.50;;
23722;SDS011;12042;52.136;5.584;2023-03-05T02:44:58;14.55;;;4.40;;
23722;SDS011;12042;52.136;5.584;2023-03-05T02:47:25;16.15;;;4.57;;
23722;SDS011;12042;52.136;5.584;2023-03-05T02:49:51;16.55;;;4.38;;
23722;SDS011;12042;52.136;5.584;2023-03-05T02:52:17;14.68;;;4.22;;
23722;SDS011;12042;52.136;5.584;2023-03-05T02:54:43;12.95;;;4.47;;
23722;SDS011;12042;52.136;5.584;2023-03-05T02:57:08;13.18;;;4.53;;
23722;SDS011;12042;52.136;5.584;2023-03-05T02:59:34;14.65;;;4.53;;
23722;SDS011;12042;52.136;5.584;2023-03-05T03:02:00;12.48;;;4.43;;
23722;SDS011;12042;52.136;5.584;2023-03-05T03:04:26;8.80;;;3.72;;
23722;SDS011;12042;52.136;5.584;2023-03-05T03:06:52;9.57;;;4.13;;
23722;SDS011;12042;52.136;5.584;2023-03-05T03:09:17;10.63;;;3.50;;
23722;SDS011;12042;52.136;5.584;2023-03-05T03:11:43;11.30;;;3.83;;
23722;SDS011;12042;52.136;5.584;2023-03-05T03:14:09;12.98;;;4.35;;
23722;SDS011;12042;52.136;5.584;2023-03-05T03:16:34;12.75;;;4.05;;
23722;SDS011;12042;52.136;5.584;2023-03-05T03:19:00;10.07;;;4.70;;
23722;SDS011;12042;52.136;5.584;2023-03-05T03:21:25;10.43;;;3.95;;
23722;SDS011;12042;52.136;5.584;2023-03-05T03:23:51;13.43;;;4.28;;
23722;SDS011;12042;52.136;5.584;2023-03-05T03:26:17;10.45;;;3.67;;
23722;SDS011;12042;52.136;5.584;2023-03-05T03:28:43;13.25;;;4.20;;
23722;SDS011;12042;52.136;5.584;2023-03-05T03:31:10;9.20;;;4.05;;
23722;SDS011;12042;52.136;5.584;2023-03-05T03:33:35;14.10;;;3.78;;
23722;SDS011;12042;52.136;5.584;2023-03-05T03:36:02;7.35;;;4.07;;
23722;SDS011;12042;52.136;5.584;2023-03-05T03:38:28;6.50;;;4.10;;
23722;SDS011;12042;52.136;5.584;2023-03-05T03:40:54;11.98;;;4.55;;
23722;SDS011;12042;52.136;5.584;2023-03-05T03:43:19;11.43;;;4.22;;
23722;SDS011;12042;52.136;5.584;2023-03-05T03:45:45;10.73;;;4.47;;
23722;SDS011;12042;52.136;5.584;2023-03-05T03:48:10;9.25;;;3.90;;
23722;SDS011;12042;52.136;5.584;2023-03-05T03:50:40;12.20;;;4.18;;
23722;SDS011;12042;52.136;5.584;2023-03-05T03:53:06;15.30;;;5.07;;
23722;SDS011;12042;52.136;5.584;2023-03-05T03:55:32;9.07;;;4.10;;
23722;SDS011;12042;52.136;5.584;2023-03-05T03:57:59;7.90;;;4.22;;
23722;SDS011;12042;52.136;5.584;2023-03-05T04:00:24;13.27;;;4.22;;
23722;SDS011;12042;52.136;5.584;2023-03-05T04:02:50;11.38;;;4.03;;
23722;SDS011;12042;52.136;5.584;2023-03-05T04:05:16;8.02;;;4.30;;
23722;SDS011;12042;52.136;5.584;2023-03-05T04:07:41;13.18;;;4.35;;
23722;SDS011;12042;52.136;5.584;2023-03-05T04:10:09;11.23;;;4.40;;
23722;SDS011;12042;52.136;5.584;2023-03-05T04:12:35;12.30;;;4.32;;
23722;SDS011;12042;52.136;5.584;2023-03-05T04:15:01;6.45;;;3.70;;
23722;SDS011;12042;52.136;5.584;2023-03-05T04:17:27;11.00;;;4.03;;
23722;SDS011;12042;52.136;5.584;2023-03-05T04:19:53;11.60;;;3.88;;
23722;SDS011;12042;52.136;5.584;2023-03-05T04:22:18;10.30;;;3.80;;
23722;SDS011;12042;52.136;5.584;2023-03-05T04:24:44;10.82;;;4.18;;
23722;SDS011;12042;52.136;5.584;2023-03-05T04:27:10;8.77;;;3.58;;
23722;SDS011;12042;52.136;5.584;2023-03-05T04:29:36;8.95;;;3.30;;
23722;SDS011;12042;52.136;5.584;2023-03-05T04:32:01;8.00;;;3.40;;
23722;SDS011;12042;52.136;5.584;2023-03-05T04:34:27;11.65;;;3.70;;
23722;SDS011;12042;52.136;5.584;2023-03-05T04:36:53;5.13;;;2.97;;
23722;SDS011;12042;52.136;5.584;2023-03-05T04:39:18;6.65;;;3.63;;
23722;SDS011;12042;52.136;5.584;2023-03-05T04:41:47;7.28;;;3.15;;
23722;SDS011;12042;52.136;5.584;2023-03-05T04:44:13;11.80;;;3.63;;
23722;SDS011;12042;52.136;5.584;2023-03-05T04:46:39;7.50;;;3.78;;
23722;SDS011;12042;52.136;5.584;2023-03-05T04:49:04;11.65;;;3.58;;
23722;SDS011;12042;52.136;5.584;2023-03-05T04:51:30;9.45;;;3.60;;
23722;SDS011;12042;52.136;5.584;2023-03-05T04:53:56;8.15;;;3.65;;
23722;SDS011;12042;52.136;5.584;2023-03-05T04:56:21;7.40;;;3.17;;
23722;SDS011;12042;52.136;5.584;2023-03-05T04:58:47;6.95;;;3.08;;
23722;SDS011;12042;52.136;5.584;2023-03-05T05:01:13;8.23;;;3.53;;
23722;SDS011;12042;52.136;5.584;2023-03-05T05:03:38;5.47;;;3.58;;
23722;SDS011;12042;52.136;5.584;2023-03-05T05:06:04;7.40;;;3.13;;
23722;SDS011;12042;52.136;5.584;2023-03-05T05:08:30;8.35;;;3.05;;
23722;SDS011;12042;52.136;5.584;2023-03-05T05:11:00;4.25;;;3.28;;
23722;SDS011;12042;52.136;5.584;2023-03-05T05:13:28;5.78;;;3.30;;
23722;SDS011;12042;52.136;5.584;2023-03-05T05:15:54;11.63;;;3.10;;
23722;SDS011;12042;52.136;5.584;2023-03-05T05:18:20;8.63;;;3.55;;
23722;SDS011;12042;52.136;5.584;2023-03-05T05:20:46;7.25;;;3.15;;
23722;SDS011;12042;52.136;5.584;2023-03-05T05:23:12;5.43;;;2.92;;
23722;SDS011;12042;52.136;5.584;2023-03-05T05:25:38;4.57;;;3.20;;
23722;SDS011;12042;52.136;5.584;2023-03-05T05:28:03;9.68;;;2.80;;
23722;SDS011;12042;52.136;5.584;2023-03-05T05:30:29;4.68;;;3.15;;
23722;SDS011;12042;52.136;5.584;2023-03-05T05:32:55;5.05;;;2.90;;
23722;SDS011;12042;52.136;5.584;2023-03-05T05:35:21;3.33;;;2.70;;
23722;SDS011;12042;52.136;5.584;2023-03-05T05:37:46;8.20;;;3.00;;
23722;SDS011;12042;52.136;5.584;2023-03-05T05:40:12;9.00;;;3.03;;
23722;SDS011;12042;52.136;5.584;2023-03-05T05:42:38;6.68;;;2.97;;
23722;SDS011;12042;52.136;5.584;2023-03-05T05:45:04;9.32;;;2.92;;
23722;SDS011;12042;52.136;5.584;2023-03-05T05:47:30;6.13;;;2.78;;
23722;SDS011;12042;52.136;5.584;2023-03-05T05:49:55;5.55;;;3.05;;
23722;SDS011;12042;52.136;5.584;2023-03-05T05:52:21;5.43;;;2.67;;
23722;SDS011;12042;52.136;5.584;2023-03-05T05:54:47;4.93;;;2.80;;
23722;SDS011;12042;52.136;5.584;2023-03-05T05:57:13;7.45;;;2.97;;
23722;SDS011;12042;52.136;5.584;2023-03-05T05:59:39;4.85;;;2.40;;
23722;SDS011;12042;52.136;5.584;2023-03-05T06:02:05;4.30;;;2.33;;
23722;SDS011;12042;52.136;5.584;2023-03-05T06:04:35;8.15;;;2.80;;
23722;SDS011;12042;52.136;5.584;2023-03-05T06:07:00;7.28;;;2.42;;
23722;SDS011;12042;52.136;5.584;2023-03-05T06:09:27;4.28;;;2.20;;
23722;SDS011;12042;52.136;5.584;2023-03-05T06:11:53;7.68;;;2.65;;
23722;SDS011;12042;52.136;5.584;2023-03-05T06:14:18;6.07;;;2.63;;
23722;SDS011;12042;52.136;5.584;2023-03-05T06:16:44;8.73;;;2.70;;
23722;SDS011;12042;52.136;5.584;2023-03-05T06:19:10;5.93;;;2.45;;
23722;SDS011;12042;52.136;5.584;2023-03-05T06:21:37;5.72;;;2.00;;
23722;SDS011;12042;52.136;5.584;2023-03-05T06:24:03;4.53;;;2.78;;
23722;SDS011;12042;52.136;5.584;2023-03-05T06:26:29;6.85;;;2.60;;
23722;SDS011;12042;52.136;5.584;2023-03-05T06:28:54;6.22;;;2.50;;
23722;SDS011;12042;52.136;5.584;2023-03-05T06:31:23;5.18;;;3.20;;
23722;SDS011;12042;52.136;5.584;2023-03-05T06:33:51;9.20;;;3.35;;
23722;SDS011;12042;52.136;5.584;2023-03-05T06:36:19;9.77;;;2.83;;
23722;SDS011;12042;52.136;5.584;2023-03-05T06:38:46;10.35;;;2.97;;
23722;SDS011;12042;52.136;5.584;2023-03-05T06:41:13;5.43;;;3.42;;
23722;SDS011;12042;52.136;5.584;2023-03-05T06:43:41;7.95;;;3.05;;
23722;SDS011;12042;52.136;5.584;2023-03-05T06:46:15;6.78;;;3.47;;
23722;SDS011;12042;52.136;5.584;2023-03-05T06:48:43;8.50;;;2.90;;
23722;SDS011;12042;52.136;5.584;2023-03-05T06:51:15;8.05;;;2.90;;
23722;SDS011;12042;52.136;5.584;2023-03-05T06:53:51;5.57;;;3.08;;
23722;SDS011;12042;52.136;5.584;2023-03-05T06:56:18;8.40;;;3.47;;
23722;SDS011;12042;52.136;5.584;2023-03-05T06:58:45;8.40;;;3.60;;
23722;SDS011;12042;52.136;5.584;2023-03-05T07:01:12;7.07;;;3.70;;
23722;SDS011;12042;52.136;5.584;2023-03-05T07:03:39;10.52;;;4.20;;
23722;SDS011;12042;52.136;5.584;2023-03-05T07:06:06;12.93;;;4.47;;
23722;SDS011;12042;52.136;5.584;2023-03-05T07:08:33;13.45;;;4.60;;
23722;SDS011;12042;52.136;5.584;2023-03-05T07:10:59;10.02;;;4.80;;
23722;SDS011;12042;52.136;5.584;2023-03-05T07:13:26;9.40;;;4.30;;
23722;SDS011;12042;52.136;5.584;2023-03-05T07:15:52;10.07;;;4.55;;
23722;SDS011;12042;52.136;5.584;2023-03-05T07:18:18;10.43;;;4.20;;
23722;SDS011;12042;52.136;5.584;2023-03-05T07:20:44;7.45;;;4.13;;
23722;SDS011;12042;52.136;5.584;2023-03-05T07:23:10;9.48;;;3.85;;
23722;SDS011;12042;52.136;5.584;2023-03-05T07:25:35;5.53;;;4.00;;
23722;SDS011;12042;52.136;5.584;2023-03-05T07:28:02;11.05;;;4.03;;
23722;SDS011;12042;52.136;5.584;2023-03-05T07:30:29;10.13;;;3.90;;
23722;SDS011;12042;52.136;5.584;2023-03-05T07:32:55;7.43;;;4.40;;
23722;SDS011;12042;52.136;5.584;2023-03-05T07:35:21;6.63;;;4.13;;
23722;SDS011;12042;52.136;5.584;2023-03-05T07:37:48;10.05;;;3.95;;
23722;SDS011;12042;52.136;5.584;2023-03-05T07:40:14;7.70;;;4.00;;
23722;SDS011;12042;52.136;5.584;2023-03-05T07:42:39;6.45;;;4.05;;
23722;SDS011;12042;52.136;5.584;2023-03-05T07:45:05;8.05;;;3.60;;
23722;SDS011;12042;52.136;5.584;2023-03-05T07:47:31;8.98;;;3.88;;
23722;SDS011;12042;52.136;5.584;2023-03-05T07:49:57;5.18;;;3.80;;
23722;SDS011;12042;52.136;5.584;2023-03-05T07:52:23;5.70;;;3.50;;
23722;SDS011;12042;52.136;5.584;2023-03-05T07:54:48;7.38;;;3.90;;
23722;SDS011;12042;52.136;5.584;2023-03-05T07:57:14;6.20;;;3.50;;
23722;SDS011;12042;52.136;5.584;2023-03-05T07:59:39;8.30;;;3.40;;
23722;SDS011;12042;52.136;5.584;2023-03-05T08:02:05;11.80;;;3.30;;
23722;SDS011;12042;52.136;5.584;2023-03-05T08:04:31;11.20;;;3.92;;
23722;SDS011;12042;52.136;5.584;2023-03-05T08:06:57;6.10;;;3.70;;
23722;SDS011;12042;52.136;5.584;2023-03-05T08:09:23;6.70;;;3.85;;
23722;SDS011;12042;52.136;5.584;2023-03-05T08:11:49;8.43;;;4.18;;
23722;SDS011;12042;52.136;5.584;2023-03-05T08:14:14;8.38;;;4.60;;
23722;SDS011;12042;52.136;5.584;2023-03-05T08:16:40;9.82;;;4.47;;
23722;SDS011;12042;52.136;5.584;2023-03-05T08:19:06;10.35;;;5.05;;
23722;SDS011;12042;52.136;5.584;2023-03-05T08:21:34;6.63;;;4.80;;
23722;SDS011;12042;52.136;5.584;2023-03-05T08:24:04;6.80;;;4.38;;
23722;SDS011;12042;52.136;5.584;2023-03-05T08:26:32;10.40;;;4.40;;
23722;SDS011;12042;52.136;5.584;2023-03-05T08:28:59;7.53;;;4.25;;
23722;SDS011;12042;52.136;5.584;2023-03-05T08:31:27;5.53;;;4.40;;
23722;SDS011;12042;52.136;5.584;2023-03-05T08:33:55;6.72;;;3.65;;
23722;SDS011;12042;52.136;5.584;2023-03-05T08:36:21;5.55;;;3.95;;
23722;SDS011;12042;52.136;5.584;2023-03-05T08:38:47;7.63;;;4.07;;
23722;SDS011;12042;52.136;5.584;2023-03-05T08:41:15;7.38;;;4.15;;
23722;SDS011;12042;52.136;5.584;2023-03-05T08:43:42;6.65;;;3.60;;
23722;SDS011;12042;52.136;5.584;2023-03-05T08:46:08;8.38;;;3.50;;
23722;SDS011;12042;52.136;5.584;2023-03-05T08:48:36;8.70;;;3.10;;
23722;SDS011;12042;52.136;5.584;2023-03-05T08:51:05;5.90;;;2.80;;
23722;SDS011;12042;52.136;5.584;2023-03-05T08:53:35;7.38;;;3.05;;
23722;SDS011;12042;52.136;5.584;2023-03-05T08:56:01;5.38;;;2.47;;
23722;SDS011;12042;52.136;5.584;2023-03-05T08:58:26;4.15;;;2.30;;
23722;SDS011;12042;52.136;5.584;2023-03-05T09:00:52;5.88;;;2.20;;
23722;SDS011;12042;52.136;5.584;2023-03-05T09:03:18;3.80;;;1.95;;
23722;SDS011;12042;52.136;5.584;2023-03-05T09:05:44;3.33;;;1.80;;
23722;SDS011;12042;52.136;5.584;2023-03-05T09:08:09;4.43;;;2.03;;
23722;SDS011;12042;52.136;5.584;2023-03-05T09:10:35;6.43;;;2.33;;
23722;SDS011;12042;52.136;5.584;2023-03-05T09:13:01;4.28;;;2.17;;
23722;SDS011;12042;52.136;5.584;2023-03-05T09:15:28;2.15;;;2.00;;
23722;SDS011;12042;52.136;5.584;2023-03-05T09:17:55;2.17;;;1.80;;
23722;SDS011;12042;52.136;5.584;2023-03-05T09:20:22;3.90;;;2.28;;
23722;SDS011;12042;52.136;5.584;2023-03-05T09:22:48;3.65;;;2.20;;
23722;SDS011;12042;52.136;5.584;2023-03-05T09:25:14;2.67;;;2.08;;
23722;SDS011;12042;52.136;5.584;2023-03-05T09:27:39;3.45;;;2.33;;
23722;SDS011;12042;52.136;5.584;2023-03-05T09:30:05;4.72;;;2.28;;
23722;SDS011;12042;52.136;5.584;2023-03-05T09:32:31;6.25;;;2.58;;
23722;SDS011;12042;52.136;5.584;2023-03-05T09:34:57;3.35;;;1.67;;
23722;SDS011;12042;52.136;5.584;2023-03-05T09:37:23;4.43;;;1.77;;
23722;SDS011;12042;52.136;5.584;2023-03-05T09:39:49;5.22;;;2.47;;
23722;SDS011;12042;52.136;5.584;2023-03-05T09:48:10;2.20;;;1.73;;
23722;SDS011;12042;52.136;5.584;2023-03-05T09:53:56;4.13;;;1.90;;
23722;SDS011;12042;52.136;5.584;2023-03-05T09:56:19;5.18;;;2.05;;
23722;SDS011;12042;52.136;5.584;2023-03-05T09:58:49;6.25;;;2.05;;
23722;SDS011;12042;52.136;5.584;2023-03-05T10:01:20;5.15;;;2.25;;
23722;SDS011;12042;52.136;5.584;2023-03-05T10:04:04;3.38;;;2.20;;
23722;SDS011;12042;52.136;5.584;2023-03-05T10:06:36;5.32;;;2.42;;
23722;SDS011;12042;52.136;5.584;2023-03-05T10:09:11;4.65;;;2.17;;
23722;SDS011;12042;52.136;5.584;2023-03-05T10:14:22;6.40;;;2.08;;
23722;SDS011;12042;52.136;5.584;2023-03-05T10:22:18;2.78;;;1.83;;
23722;SDS011;12042;52.136;5.584;2023-03-05T10:24:59;2.65;;;1.48;;
23722;SDS011;12042;52.136;5.584;2023-03-05T10:27:45;2.30;;;1.80;;
23722;SDS011;12042;52.136;5.584;2023-03-05T10:38:18;2.53;;;1.73;;
23722;SDS011;12042;52.136;5.584;2023-03-05T10:41:07;5.40;;;1.90;;
23722;SDS011;12042;52.136;5.584;2023-03-05T10:46:08;5.57;;;3.22;;
23722;SDS011;12042;52.136;5.584;2023-03-05T10:48:44;6.28;;;2.17;;
23722;SDS011;12042;52.136;5.584;2023-03-05T10:51:12;4.22;;;1.75;;
23722;SDS011;12042;52.136;5.584;2023-03-05T10:56:21;4.88;;;1.42;;
23722;SDS011;12042;52.136;5.584;2023-03-05T10:58:48;1.77;;;1.20;;
23722;SDS011;12042;52.136;5.584;2023-03-05T11:01:23;2.50;;;1.50;;
23722;SDS011;12042;52.136;5.584;2023-03-05T11:04:02;4.05;;;2.05;;
23722;SDS011;12042;52.136;5.584;2023-03-05T11:14:26;3.47;;;1.63;;
23722;SDS011;12042;52.136;5.584;2023-03-05T11:16:57;3.22;;;1.25;;
23722;SDS011;12042;52.136;5.584;2023-03-05T11:19:26;7.68;;;2.63;;
23722;SDS011;12042;52.136;5.584;2023-03-05T11:24:38;4.63;;;1.90;;
23722;SDS011;12042;52.136;5.584;2023-03-05T11:27:52;5.45;;;1.75;;
23722;SDS011;12042;52.136;5.584;2023-03-05T11:30:01;3.95;;;1.85;;
23722;SDS011;12042;52.136;5.584;2023-03-05T11:32:28;3.30;;;1.17;;
23722;SDS011;12042;52.136;5.584;2023-03-05T11:34:54;5.03;;;1.00;;
23722;SDS011;12042;52.136;5.584;2023-03-05T11:37:30;1.48;;;1.00;;
23722;SDS011;12042;52.136;5.584;2023-03-05T11:42:34;1.75;;;0.93;;
23722;SDS011;12042;52.136;5.584;2023-03-05T11:45:04;2.05;;;0.77;;
23722;SDS011;12042;52.136;5.584;2023-03-05T11:50:01;3.35;;;1.20;;
23722;SDS011;12042;52.136;5.584;2023-03-05T11:52:51;2.92;;;0.98;;
23722;SDS011;12042;52.136;5.584;2023-03-05T11:55:47;4.15;;;0.60;;
23722;SDS011;12042;52.136;5.584;2023-03-05T12:00:47;3.13;;;1.30;;
23722;SDS011;12042;52.136;5.584;2023-03-05T12:03:14;2.45;;;1.40;;
23722;SDS011;12042;52.136;5.584;2023-03-05T12:05:47;0.93;;;0.65;;
23722;SDS011;12042;52.136;5.584;2023-03-05T12:08:20;2.78;;;0.95;;
23722;SDS011;12042;52.136;5.584;2023-03-05T12:10:50;2.63;;;1.80;;
23722;SDS011;12042;52.136;5.584;2023-03-05T12:13:24;1.55;;;0.88;;
23722;SDS011;12042;52.136;5.584;2023-03-05T12:21:55;0.95;;;0.60;;
23722;SDS011;12042;52.136;5.584;2023-03-05T12:34:58;1.55;;;0.77;;
23722;SDS011;12042;52.136;5.584;2023-03-05T12:39:59;1.83;;;1.15;;
23722;SDS011;12042;52.136;5.584;2023-03-05T12:47:35;3.63;;;0.90;;
23722;SDS011;12042;52.136;5.584;2023-03-05T12:50:02;2.78;;;1.08;;
23722;SDS011;12042;52.136;5.584;2023-03-05T12:52:29;4.38;;;0.50;;
23722;SDS011;12042;52.136;5.584;2023-03-05T12:57:57;5.28;;;1.00;;
23722;SDS011;12042;52.136;5.584;2023-03-05T13:03:28;2.05;;;1.02;;
23722;SDS011;12042;52.136;5.584;2023-03-05T13:05:58;1.67;;;0.77;;
23722;SDS011;12042;52.136;5.584;2023-03-05T13:08:31;1.25;;;0.60;;
23722;SDS011;12042;52.136;5.584;2023-03-05T13:11:15;2.08;;;0.80;;
23722;SDS011;12042;52.136;5.584;2023-03-05T13:13:45;2.40;;;0.65;;
23722;SDS011;12042;52.136;5.584;2023-03-05T13:16:16;3.00;;;0.77;;
23722;SDS011;12042;52.136;5.584;2023-03-05T13:18:44;1.55;;;0.70;;
23722;SDS011;12042;52.136;5.584;2023-03-05T13:21:13;1.85;;;0.90;;
23722;SDS011;12042;52.136;5.584;2023-03-05T13:23:51;3.38;;;1.27;;
23722;SDS011;12042;52.136;5.584;2023-03-05T13:29:05;2.00;;;0.80;;
23722;SDS011;12042;52.136;5.584;2023-03-05T13:31:42;3.58;;;1.00;;
23722;SDS011;12042;52.136;5.584;2023-03-05T13:34:14;3.28;;;1.00;;
23722;SDS011;12042;52.136;5.584;2023-03-05T13:37:14;1.40;;;0.80;;
23722;SDS011;12042;52.136;5.584;2023-03-05T13:40:02;2.10;;;1.10;;
23722;SDS011;12042;52.136;5.584;2023-03-05T13:42:39;2.22;;;0.93;;
23722;SDS011;12042;52.136;5.584;2023-03-05T13:50:22;0.90;;;0.70;;
23722;SDS011;12042;52.136;5.584;2023-03-05T13:52:53;2.35;;;1.20;;
23722;SDS011;12042;52.136;5.584;2023-03-05T13:55:19;2.15;;;0.60;;
23722;SDS011;12042;52.136;5.584;2023-03-05T13:57:46;3.17;;;0.70;;
23722;SDS011;12042;52.136;5.584;2023-03-05T14:00:28;2.60;;;1.08;;
23722;SDS011;12042;52.136;5.584;2023-03-05T14:03:08;2.85;;;0.75;;
23722;SDS011;12042;52.136;5.584;2023-03-05T14:05:35;4.28;;;1.05;;
23722;SDS011;12042;52.136;5.584;2023-03-05T14:08:12;2.00;;;1.10;;
23722;SDS011;12042;52.136;5.584;2023-03-05T14:10:45;2.22;;;0.95;;
23722;SDS011;12042;52.136;5.584;2023-03-05T14:13:12;1.65;;;1.17;;
23722;SDS011;12042;52.136;5.584;2023-03-05T14:15:42;1.70;;;0.63;;
23722;SDS011;12042;52.136;5.584;2023-03-05T14:20:36;2.15;;;1.00;;
23722;SDS011;12042;52.136;5.584;2023-03-05T14:28:50;1.27;;;0.80;;
23722;SDS011;12042;52.136;5.584;2023-03-05T14:31:27;2.08;;;0.70;;
23722;SDS011;12042;52.136;5.584;2023-03-05T14:33:59;2.30;;;0.93;;
23722;SDS011;12042;52.136;5.584;2023-03-05T14:36:29;4.30;;;1.30;;
23722;SDS011;12042;52.136;5.584;2023-03-05T14:38:56;3.90;;;1.30;;
23722;SDS011;12042;52.136;5.584;2023-03-05T14:41:31;2.15;;;1.20;;
23722;SDS011;12042;52.136;5.584;2023-03-05T14:44:07;2.80;;;0.98;;
23722;SDS011;12042;52.136;5.584;2023-03-05T14:46:40;4.55;;;1.08;;
23722;SDS011;12042;52.136;5.584;2023-03-05T14:49:06;2.53;;;1.60;;
23722;SDS011;12042;52.136;5.584;2023-03-05T14:51:39;1.40;;;0.93;;
23722;SDS011;12042;52.136;5.584;2023-03-05T14:54:06;1.08;;;0.68;;
23722;SDS011;12042;52.136;5.584;2023-03-05T14:56:42;1.30;;;1.20;;
23722;SDS011;12042;52.136;5.584;2023-03-05T14:59:08;5.82;;;3.45;;
23722;SDS011;12042;52.136;5.584;2023-03-05T15:01:34;3.50;;;2.60;;
23722;SDS011;12042;52.136;5.584;2023-03-05T15:03:59;2.65;;;0.90;;
23722;SDS011;12042;52.136;5.584;2023-03-05T15:06:31;2.40;;;1.20;;
23722;SDS011;12042;52.136;5.584;2023-03-05T15:09:00;4.15;;;1.23;;
23722;SDS011;12042;52.136;5.584;2023-03-05T15:11:28;1.77;;;1.42;;
23722;SDS011;12042;52.136;5.584;2023-03-05T15:13:53;2.08;;;1.10;;
23722;SDS011;12042;52.136;5.584;2023-03-05T15:16:19;3.20;;;1.55;;
23722;SDS011;12042;52.136;5.584;2023-03-05T15:18:46;2.08;;;1.60;;
23722;SDS011;12042;52.136;5.584;2023-03-05T15:21:12;5.45;;;2.33;;
23722;SDS011;12042;52.136;5.584;2023-03-05T15:23:38;2.05;;;1.85;;
23722;SDS011;12042;52.136;5.584;2023-03-05T15:26:05;4.07;;;2.20;;
23722;SDS011;12042;52.136;5.584;2023-03-05T15:28:33;2.78;;;1.77;;
23722;SDS011;12042;52.136;5.584;2023-03-05T15:31:00;3.50;;;2.50;;
23722;SDS011;12042;52.136;5.584;2023-03-05T15:33:26;4.10;;;2.28;;
23722;SDS011;12042;52.136;5.584;2023-03-05T15:35:52;3.42;;;2.30;;
23722;SDS011;12042;52.136;5.584;2023-03-05T15:38:18;2.85;;;2.40;;
23722;SDS011;12042;52.136;5.584;2023-03-05T15:40:44;3.72;;;2.35;;
23722;SDS011;12042;52.136;5.584;2023-03-05T15:43:11;3.33;;;2.70;;
23722;SDS011;12042;52.136;5.584;2023-03-05T15:45:37;5.32;;;2.95;;
23722;SDS011;12042;52.136;5.584;2023-03-05T15:48:02;5.30;;;2.88;;
23722;SDS011;12042;52.136;5.584;2023-03-05T15:50:28;3.60;;;2.75;;
23722;SDS011;12042;52.136;5.584;2023-03-05T15:52:53;5.38;;;2.70;;
23722;SDS011;12042;52.136;5.584;2023-03-05T15:55:19;6.63;;;3.10;;
23722;SDS011;12042;52.136;5.584;2023-03-05T15:57:46;3.30;;;3.00;;
23722;SDS011;12042;52.136;5.584;2023-03-05T16:00:14;6.93;;;3.72;;
23722;SDS011;12042;52.136;5.584;2023-03-05T16:02:42;4.35;;;3.58;;
23722;SDS011;12042;52.136;5.584;2023-03-05T16:05:08;6.45;;;4.63;;
23722;SDS011;12042;52.136;5.584;2023-03-05T16:07:34;8.48;;;4.70;;
23722;SDS011;12042;52.136;5.584;2023-03-05T16:10:03;4.53;;;4.05;;
23722;SDS011;12042;52.136;5.584;2023-03-05T16:12:32;5.07;;;4.50;;
23722;SDS011;12042;52.136;5.584;2023-03-05T16:15:05;6.65;;;5.00;;
23722;SDS011;12042;52.136;5.584;2023-03-05T16:17:32;6.22;;;4.10;;
23722;SDS011;12042;52.136;5.584;2023-03-05T16:19:58;5.63;;;4.65;;
23722;SDS011;12042;52.136;5.584;2023-03-05T16:22:24;7.35;;;4.22;;
23722;SDS011;12042;52.136;5.584;2023-03-05T16:24:49;7.43;;;4.85;;
23722;SDS011;12042;52.136;5.584;2023-03-05T16:27:15;6.78;;;4.63;;